Weather History for Centralia, IL

Change the Weather History Date:

Sunday, April 28, 2013

  Actual Average (KSLO) Record (KSLO)
Temperature  
Mean Temperature 56 °F -  
Max Temperature 61 °F 71 °F 87 °F (1970)
Min Temperature 50 °F 48 °F 30 °F (1992)
Degree Days  
Heating Degree Days 9    
Growing Degree Days 6 (Base 50)    
Moisture  
Dew Point 54 °F    
Average Humidity 90    
Maximum Humidity 100    
Minimum Humidity 76    
Precipitation  
Precipitation 0.04 in - - ()
Sea Level Pressure  
Sea Level Pressure 29.92 in    
Wind  
Wind Speed 6 mph (West)    
Max Wind Speed 14 mph    
Max Gust Speed -    
Visibility 5 miles    
Events Fog , Rain    
Averages and records for this station are not official NWS values.
T = Trace of Precipitation, MM = Missing Value Source: NWS Daily Summary

Daily Weather History Graph

Daily Weather History Graph

Search for Another Location

Airport:

Trip Planner

Search our weather history database for the weather conditions in past years. The results will help you decide how hot, cold, wet, or windy it might be!

Date:

Astronomy

Apr. 28, 2013 Rise Set
Actual Time 6:02 AM CDT 7:45 PM CDT
Civil Twilight 5:34 AM CDT 8:14 PM CDT
Nautical Twilight 5:00 AM CDT 8:48 PM CDT
Astronomical Twilight 4:23 AM CDT 9:25 PM CDT
Moon 11:14 PM CDT (4/28) 8:20 AM CDT (4/28)
Length of Visible Light 14h 39m
Length of Day
13h 43m
Waning Gibbous, 88% of the Moon is Illuminated
Apr 28
Waning Gibbous
May 2
Last Quarter
May 9
New
May 17
First Quarter
May 24
Full

Hourly Weather History & Observations

Time (CDT) Temp. Dew Point Humidity Pressure Visibility Wind Dir Wind Speed Gust Speed Precip Events Conditions
12:15 AM 58.1 °F 56.3 °F 94% 29.90 in 1.8 mi Calm Calm - N/A Rain Light Rain
12:35 AM 57.7 °F 56.3 °F 95% 29.90 in 1.0 mi West 3.5 mph - 0.01 in   Heavy Drizzle
12:55 AM 57.7 °F 56.3 °F 95% 29.90 in 1.5 mi West 3.5 mph - 0.01 in   Heavy Drizzle
1:15 AM 57.7 °F 56.3 °F 95% 29.89 in 1.5 mi West 3.5 mph - 0.01 in   Drizzle
1:35 AM 57.7 °F 56.1 °F 94% 29.89 in 2.0 mi West 3.5 mph - 0.02 in Rain Rain
1:55 AM 57.6 °F 55.9 °F 94% 29.88 in 2.5 mi West 3.5 mph - 0.03 in Rain Rain
2:15 AM 57.4 °F 55.8 °F 94% 29.88 in 3.0 mi West 4.6 mph - N/A   Overcast
2:35 AM 57.4 °F 55.8 °F 94% 29.87 in 4.0 mi West 3.5 mph - N/A   Overcast
2:55 AM 57.2 °F 55.6 °F 94% 29.87 in 3.0 mi West 4.6 mph - N/A   Overcast
3:15 AM 57.2 °F 55.6 °F 94% 29.87 in 4.0 mi West 4.6 mph - N/A   Overcast
3:35 AM 57.2 °F 55.6 °F 94% 29.86 in 2.5 mi WSW 4.6 mph - N/A   Overcast
3:55 AM 57.2 °F 55.4 °F 94% 29.86 in 2.5 mi West 4.6 mph - N/A   Overcast
4:15 AM 57.0 °F 55.4 °F 94% 29.87 in 1.2 mi WSW 5.8 mph - N/A   Overcast
4:35 AM 56.7 °F 55.0 °F 94% 29.87 in 0.8 mi West 8.1 mph - N/A   Overcast
4:55 AM 56.7 °F 55.4 °F 96% 29.87 in 0.8 mi West 9.2 mph - N/A   Overcast
5:15 AM 56.3 °F 54.9 °F 95% 29.88 in 2.0 mi West 9.2 mph - N/A   Overcast
5:35 AM 56.3 °F 54.7 °F 94% 29.88 in 1.5 mi West 9.2 mph - N/A   Overcast
5:55 AM 55.4 °F 55.4 °F 100% 29.89 in 1.0 mi West 8.1 mph - N/A   Overcast
6:15 AM 55.9 °F 54.5 °F 95% 29.89 in 1.0 mi West 6.9 mph - N/A   Overcast
6:35 AM 55.9 °F 54.5 °F 95% 29.90 in 1.0 mi West 8.1 mph - N/A   Overcast
6:55 AM 55.8 °F 54.5 °F 96% 29.90 in 0.5 mi West 11.5 mph - N/A Fog Fog
7:15 AM 55.8 °F 54.5 °F 96% 29.91 in 0.5 mi West 10.4 mph - N/A Fog Fog
7:35 AM 55.8 °F 54.5 °F 96% 29.91 in 0.8 mi West 9.2 mph - N/A   Overcast
7:55 AM 55.4 °F 53.6 °F 94% 29.91 in 1.0 mi West 6.9 mph - N/A   Overcast
8:15 AM 55.8 °F 54.5 °F 96% 29.91 in 1.2 mi West 9.2 mph - N/A   Overcast
8:35 AM 55.9 °F 54.5 °F 95% 29.91 in 2.5 mi West 10.4 mph - N/A   Overcast
8:55 AM 56.3 °F 54.7 °F 94% 29.91 in 4.0 mi West 8.1 mph - N/A   Overcast
9:15 AM 56.3 °F 54.7 °F 94% 29.91 in 4.0 mi West 8.1 mph - N/A   Overcast
9:35 AM 56.8 °F 54.9 °F 93% 29.92 in 7.0 mi West 9.2 mph - N/A   Overcast
9:55 AM 56.8 °F 54.5 °F 92% 29.92 in 7.0 mi West 10.4 mph - N/A   Overcast
10:15 AM 57.2 °F 54.5 °F 91% 29.92 in 7.0 mi West 11.5 mph - N/A   Overcast
10:35 AM 57.2 °F 54.7 °F 91% 29.92 in 10.0 mi West 11.5 mph - N/A   Overcast
10:55 AM 57.2 °F 54.7 °F 91% 29.93 in 7.0 mi West 9.2 mph - N/A   Overcast
11:15 AM 57.2 °F 54.5 °F 91% 29.94 in 5.0 mi West 11.5 mph - N/A   Overcast
11:35 AM 57.2 °F 54.5 °F 91% 29.94 in 5.0 mi West 13.8 mph - N/A   Overcast
11:55 AM 57.2 °F 54.5 °F 91% 29.94 in 5.0 mi West 10.4 mph - N/A   Overcast
12:15 PM 57.2 °F 54.5 °F 91% 29.94 in 2.0 mi West 10.4 mph - N/A   Overcast
12:35 PM 57.2 °F 54.7 °F 91% 29.93 in 4.0 mi WNW 12.7 mph - N/A   Overcast
12:55 PM 57.7 °F 54.9 °F 90% 29.93 in 4.0 mi West 9.2 mph - N/A   Overcast
1:15 PM 57.7 °F 54.9 °F 90% 29.93 in 4.0 mi West 11.5 mph - N/A   Overcast
1:35 PM 57.7 °F 54.7 °F 90% 29.94 in 4.0 mi West 8.1 mph - N/A   Overcast
1:55 PM 58.3 °F 54.9 °F 88% 29.94 in 5.0 mi West 8.1 mph - N/A   Overcast
2:15 PM 58.5 °F 54.9 °F 88% 29.94 in 5.0 mi WNW 8.1 mph - N/A   Overcast
2:35 PM 58.6 °F 55.0 °F 88% 29.94 in 5.0 mi West 8.1 mph - N/A   Overcast
2:55 PM 59.4 °F 55.2 °F 86% 29.94 in 5.0 mi West 8.1 mph - N/A   Haze
3:15 PM 59.9 °F 55.0 °F 84% 29.93 in 7.0 mi West 6.9 mph - N/A   Overcast
3:35 PM 59.5 °F 55.4 °F 86% 29.93 in 5.0 mi West 5.8 mph - N/A   Haze
3:55 PM 59.9 °F 55.2 °F 84% 29.92 in 5.0 mi WSW 8.1 mph - N/A   Haze
4:15 PM 60.8 °F 55.6 °F 83% 29.92 in 7.0 mi West 6.9 mph - N/A   Overcast
4:35 PM 60.8 °F 55.0 °F 81% 29.92 in 7.0 mi West 12.7 mph - N/A   Overcast
4:55 PM 60.6 °F 54.7 °F 81% 29.92 in 7.0 mi West 12.7 mph - N/A   Overcast
5:15 PM 61.0 °F 54.9 °F 80% 29.92 in 7.0 mi West 10.4 mph - N/A   Overcast
5:35 PM 61.0 °F 54.5 °F 79% 29.92 in 7.0 mi West 9.2 mph - N/A   Overcast
5:55 PM 61.3 °F 54.7 °F 79% 29.92 in 10.0 mi West 8.1 mph - N/A   Overcast
6:15 PM 61.3 °F 54.1 °F 77% 29.91 in 10.0 mi WSW 8.1 mph - N/A   Scattered Clouds
6:35 PM 61.2 °F 53.4 °F 76% 29.92 in 10.0 mi WSW 8.1 mph - N/A   Scattered Clouds
6:55 PM 60.3 °F 53.8 °F 79% 29.92 in 10.0 mi West 5.8 mph - N/A   Mostly Cloudy
7:15 PM 59.9 °F 53.4 °F 79% 29.93 in 10.0 mi WSW 5.8 mph - N/A   Overcast
7:35 PM 59.4 °F 53.2 °F 80% 29.93 in 10.0 mi WSW 3.5 mph - N/A   Overcast
7:55 PM 58.1 °F 52.9 °F 83% 29.93 in 10.0 mi SW 5.8 mph - N/A   Overcast
8:15 PM 57.0 °F 52.7 °F 85% 29.93 in 10.0 mi WSW 5.8 mph - N/A   Overcast
8:35 PM 56.8 °F 52.5 °F 85% 29.93 in 10.0 mi WSW 5.8 mph - N/A   Mostly Cloudy
8:55 PM 56.1 °F 51.4 °F 84% 29.94 in 10.0 mi West 4.6 mph - N/A   Scattered Clouds
9:15 PM 54.7 °F 50.7 °F 86% 29.95 in 10.0 mi Calm Calm - N/A   Clear
9:35 PM 54.5 °F 50.9 °F 88% 29.95 in 10.0 mi SW 3.5 mph - N/A   Clear
9:55 PM 53.4 °F 50.5 °F 90% 29.96 in 10.0 mi Calm Calm - N/A   Mostly Cloudy
10:15 PM 54.1 °F 51.4 °F 91% 29.95 in 10.0 mi Calm Calm - N/A   Mostly Cloudy
10:35 PM 52.2 °F 49.6 °F 91% 29.96 in 7.0 mi Calm Calm - N/A   Scattered Clouds
10:55 PM 51.4 °F 49.5 °F 93% 29.95 in 5.0 mi Calm Calm - N/A   Clear
11:15 PM 51.6 °F 49.8 °F 94% 29.95 in 4.0 mi Calm Calm - N/A   Clear
11:35 PM 51.3 °F 49.5 °F 94% 29.95 in 4.0 mi Calm Calm - N/A   Clear
11:55 PM 50.0 °F 48.2 °F 94% 29.94 in 2.0 mi Calm Calm - N/A   Clear